首页
METAR-TAF:

METAR-TAF

机场 :

麦卡伦国际机场

拉斯维加斯, 内华达州, 美国

纬度: 36-04-44N, 经度: 115-09-19W, 海拔: 663米

当前天气观测

该预报发布于27分钟前的06:56 UTC
风速6节,风向西转西北
温度 14°C
湿度 33%
气压 1015 hPa
能見度: 16.1公里
少量云层高于15000英尺
阴天层高于25000英尺

METAR: KLAS 170656Z 30006KT 10SM FEW150 OVC250 14/M02 A2997 RMK AO2 SLP139 T01391022

时间: 23:23 (07:23 UTC)

预报

该预报发布于2小时和0分钟前的05:23 UTC
预报有效从17日的 06点(UTC)到 18日的 12点(UTC)
风速5节,风向西转西南
能見度: 10公里
散云层高于15000英尺
多云层高于25000英尺
从 17日的 1700点(UTC)
风速10节,风向北转东北
能見度: 10公里
散云层高于25000英尺
从 17日的 2300点(UTC)
风速5节,风向东北
能見度: 10公里
散云层高于25000英尺
从 18日的 0300点(UTC)
风速5节,风向西转西南
能見度: 10公里
少量云层高于25000英尺
从 18日的 1000点(UTC)
风速5节,风向南转南东
能見度: 10公里
少量云层高于25000英尺

TAF: KLAS 170523Z 1706/1812 24005KT P6SM SCT150 BKN250 FM171700 02010KT P6SM SCT250 FM172300 05005KT P6SM SCT250 FM180300 24005KT P6SM FEW250 FM181000 16005KT P6SM FEW250

超过4000个机场的气象观测和天气预报(METAR&TAF报告)。

可查询的气象台以黄色和红色小点在地图上表示。

将鼠标移到小点上方,可查看气象台名称。

然后点击查看天气观测和预报。

如需切换地图:点击带黑十字的绿色按钮放大地图;点击带横线的绿色按钮缩小地图;或者点击绿色箭头查看邻近地区的地图。


METAR-TAF: